aviador You're here:

PAIK Decoded Metar

in _UNIDENTIFIED
Report Time2017-04-30 14:01:00
UTC Time2017-04-30 14:55:58
Flight Rules vfr VFR
WindCalm
Visibility9999 m
Phenomena:N/A
Clouds:Few 055 Hf
Overcast 090 Hf
Expected CloudBase > 2,400 ft AGL from Temp-Dew spread
Ceiling9,000 ft
Temp02°C (ISA -13)
Dew Point-4°C (65% RH)
AAT-0.5°C
QNH1012 hPa
Density Alt-1,276 ft
Elevation167 ft
Report Wrong Elevation
Raw Report
PAIK 301401Z AUTO 00000KT 10SM FEW055 OVC090 02/M04 A2989 RMK AO2
SLP162 T00221044 FZRANO=

Extra information for PAIK:More info

Metar Taf Metar & Taf Last 4 Metars F.Rules Stats Wind Profile Meteogram Temp Stats Metar ALERT Operation Metar Decoded Social comments